Etusivu
METAR-TAF:

METAR-TAF

Lentoasemat :

Tumbes, Peru

Leveyspiiri: 03-33S, Pituuspiiri: 080-24W, korkeus merenpinnasta: 25 m

Tämänhetkinen sää

Tämä raportti tehtiin 32 minuuttia sitten, kello 20.00 UTC
Tuuli 6 kn pohjoisen/luoteesta
Lämpötila 30°C
Kosteus 66%
Ilmanpaine 1007 hPa
Näkyvyys 10 km tai enemmän
Hajanaisia pilviä 2000 ft:n korkeudessa

METAR: SPME 122000Z 34006KT 9999 SCT020 30/23 Q1007 RMK BIRD HAZARD RWY 32/14 PP000

Aika: 15:32 (20:32 UTC)

Sääennuste

Tämä raportti tehtiin 3 tuntia ja 32 minuuttia sitten, kello 17.00 UTC
Ennuste voimassa 12. päivästä klo 18 UTC - 13. päivään klo 18 UTC
Tuuli 10 kn pohjoisen/luoteesta
Näkyvyys 10 km tai enemmän
Hajanaisia pilviä 2000 ft:n korkeudessa
Tulossa
13. päivästä klo 00 UTC - 13. päivään klo 02 UTC
Tuuli 5 kn lännestä
Tulossa
13. päivästä klo 16 UTC - 13. päivään klo 18 UTC

TAF: SPME 121700Z 1218/1318 34010KT 9999 SCT020 TX33/1218Z TN24/1310Z BECMG 1300/1302 28005KT BECMG 1316/1318 34010K

Säähavainnot ja -ennusteet yli 4000 lentoasemalta (METAR- ja TAF-raportit).

Käytössä olevat sääasemat on merkitty karttaan keltaisilla ja punaisilla pisteillä.

Aseta hiiri pisteen päälle nähdäksesi sääaseman nimen.

Klikkaa sitten nähdäksesi säähavainnot ja -ennusteet.

Kartan vaihtaminen: klikkaa mustalla rastilla varustettuja vihreitä pisteitä, niin voit zoomata sisään; viivalla varustettua vihreää pistettä, niin voit zoomata ulos tai vihreitä nuolia, niin pääset viereisille kartoille.


METAR-TAF: